createdAt,value
2018-11-27T00:00:03.466Z,13.48
2018-11-27T00:02:31.565Z,12.40
2018-11-27T00:04:59.759Z,12.82
2018-11-27T00:07:27.995Z,11.40
2018-11-27T00:09:56.144Z,11.78
2018-11-27T00:12:24.256Z,12.78
2018-11-27T00:14:52.410Z,11.38
2018-11-27T00:17:20.528Z,13.22
2018-11-27T00:19:48.654Z,12.18
2018-11-27T00:22:16.897Z,12.78
2018-11-27T00:24:45.032Z,11.18
2018-11-27T00:27:13.134Z,13.30
2018-11-27T00:29:41.271Z,12.45
2018-11-27T00:32:09.398Z,12.25
2018-11-27T00:34:37.535Z,11.00
2018-11-27T00:37:05.662Z,12.15
2018-11-27T00:39:33.899Z,12.73
2018-11-27T00:42:02.072Z,12.30
2018-11-27T00:44:30.218Z,11.20
2018-11-27T00:46:58.325Z,11.48
2018-11-27T00:49:26.429Z,12.65
2018-11-27T00:51:54.546Z,12.75
2018-11-27T00:54:22.768Z,12.47
2018-11-27T00:56:50.956Z,11.93
2018-11-27T00:59:19.092Z,11.97
2018-11-27T01:01:47.251Z,13.18
2018-11-27T01:04:15.413Z,12.13
2018-11-27T01:06:43.540Z,12.00
2018-11-27T01:09:11.772Z,10.18
2018-11-27T01:11:39.911Z,10.95
2018-11-27T01:14:09.031Z,12.35
2018-11-27T01:16:37.295Z,11.20
2018-11-27T01:19:05.557Z,11.43
2018-11-27T01:21:33.661Z,12.50
2018-11-27T01:24:01.841Z,11.22
2018-11-27T01:26:30.037Z,10.13
2018-11-27T01:28:59.003Z,10.98
2018-11-27T01:31:27.155Z,11.73
2018-11-27T01:33:55.261Z,10.50
2018-11-27T01:36:23.382Z,12.53
2018-11-27T01:38:51.507Z,12.15
2018-11-27T01:41:19.641Z,13.13
2018-11-27T01:43:47.785Z,11.30
2018-11-27T01:46:16.068Z,11.30
2018-11-27T01:48:44.226Z,10.50
2018-11-27T01:51:12.352Z,13.00
2018-11-27T01:53:40.557Z,11.70
2018-11-27T01:56:08.730Z,11.60
2018-11-27T01:58:36.853Z,10.68
2018-11-27T02:01:05.381Z,12.65
2018-11-27T02:03:33.543Z,12.23
2018-11-27T02:06:01.694Z,11.83
2018-11-27T02:08:29.811Z,10.15
2018-11-27T02:10:57.918Z,10.95
2018-11-27T02:13:26.202Z,11.97
2018-11-27T02:15:54.293Z,11.97
2018-11-27T02:18:22.397Z,10.53
2018-11-27T02:20:50.554Z,10.25
2018-11-27T02:23:18.677Z,12.20
2018-11-27T02:25:46.858Z,11.70
2018-11-27T02:28:15.012Z,11.43
2018-11-27T02:30:43.160Z,11.70
2018-11-27T02:33:11.478Z,11.48
2018-11-27T02:35:39.583Z,11.33
2018-11-27T02:38:08.738Z,10.60
2018-11-27T02:40:36.906Z,11.85
2018-11-27T02:43:05.679Z,12.13
2018-11-27T02:45:33.829Z,11.65
2018-11-27T02:48:02.167Z,13.38
2018-11-27T02:50:30.443Z,10.35
2018-11-27T02:52:58.568Z,11.88
2018-11-27T02:55:27.151Z,10.03
2018-11-27T02:57:55.344Z,11.65
2018-11-27T03:00:25.739Z,10.45
2018-11-27T03:02:53.931Z,11.38
2018-11-27T03:05:26.343Z,11.53
2018-11-27T03:07:54.593Z,11.80
2018-11-27T03:10:22.834Z,12.82
2018-11-27T03:12:50.965Z,12.05
2018-11-27T03:15:19.273Z,10.72
2018-11-27T03:17:47.445Z,12.30
2018-11-27T03:20:16.685Z,12.23
2018-11-27T03:22:45.943Z,11.88
2018-11-27T03:25:16.223Z,11.55
2018-11-27T03:27:45.504Z,10.58
2018-11-27T03:30:18.020Z,11.33
2018-11-27T03:32:46.308Z,11.50
2018-11-27T03:35:15.313Z,12.60
2018-11-27T03:37:44.038Z,11.03
2018-11-27T03:40:19.290Z,11.63
2018-11-27T03:42:47.410Z,11.10
2018-11-27T03:45:15.949Z,10.85
2018-11-27T03:47:44.276Z,10.82
2018-11-27T03:50:14.779Z,9.98
2018-11-27T03:52:42.921Z,10.18
2018-11-27T03:55:11.892Z,9.63
2018-11-27T03:57:40.101Z,11.48
2018-11-27T04:00:16.554Z,11.68
2018-11-27T04:02:46.409Z,10.00
2018-11-27T04:05:14.556Z,10.53
2018-11-27T04:07:42.920Z,9.95
2018-11-27T04:10:17.244Z,12.53
2018-11-27T04:12:45.381Z,9.80
2018-11-27T04:15:13.822Z,12.00
2018-11-27T04:17:42.204Z,10.88
2018-11-27T04:20:11.382Z,11.30
2018-11-27T04:22:40.028Z,11.08
2018-11-27T04:25:09.571Z,11.05
2018-11-27T04:27:37.808Z,11.65
2018-11-27T04:30:09.665Z,11.70
2018-11-27T04:32:37.936Z,11.10
2018-11-27T04:35:06.910Z,10.95
2018-11-27T04:37:35.239Z,11.43
2018-11-27T04:40:03.723Z,10.82
2018-11-27T04:42:31.872Z,11.12
2018-11-27T04:45:00.031Z,11.85
2018-11-27T04:47:28.208Z,10.80
2018-11-27T04:49:56.930Z,11.63
2018-11-27T04:52:25.040Z,9.65
2018-11-27T04:54:53.235Z,10.50
2018-11-27T04:57:21.375Z,10.85
2018-11-27T04:59:49.588Z,9.48
2018-11-27T05:02:18.624Z,10.72
2018-11-27T05:04:46.768Z,10.80
2018-11-27T05:07:14.917Z,9.60
2018-11-27T05:09:43.118Z,10.08
2018-11-27T05:12:11.238Z,11.83
2018-11-27T05:14:39.412Z,10.95
2018-11-27T05:17:07.553Z,10.68
2018-11-27T05:19:35.752Z,10.53
2018-11-27T05:22:03.895Z,10.10
2018-11-27T05:24:33.035Z,10.68
2018-11-27T05:27:01.157Z,10.18
2018-11-27T05:29:29.346Z,11.57
2018-11-27T05:31:57.656Z,10.28
2018-11-27T05:34:25.790Z,9.88
2018-11-27T05:36:54.053Z,10.72
2018-11-27T05:39:22.189Z,9.95
2018-11-27T05:41:50.390Z,9.33
2018-11-27T05:44:18.613Z,9.80
2018-11-27T05:46:46.699Z,8.83
2018-11-27T05:49:14.904Z,9.30
2018-11-27T05:51:43.273Z,11.28
2018-11-27T05:54:11.433Z,12.15
2018-11-27T05:56:39.577Z,9.80
2018-11-27T05:59:07.693Z,9.28
2018-11-27T06:01:35.842Z,9.00
2018-11-27T06:04:04.020Z,11.63
2018-11-27T06:06:32.275Z,9.53
2018-11-27T06:09:00.407Z,10.80
2018-11-27T06:11:28.537Z,10.03
2018-11-27T06:13:56.677Z,8.90
2018-11-27T06:16:24.866Z,9.85
2018-11-27T06:18:53.041Z,9.70
2018-11-27T06:21:21.157Z,9.73
2018-11-27T06:23:49.267Z,8.90
2018-11-27T06:26:17.393Z,9.70
2018-11-27T06:28:45.507Z,9.13
2018-11-27T06:31:13.661Z,9.28
2018-11-27T06:33:43.351Z,9.95
2018-11-27T06:36:11.455Z,8.90
2018-11-27T06:38:39.569Z,9.80
2018-11-27T06:41:07.745Z,9.50
2018-11-27T06:43:35.866Z,8.38
2018-11-27T06:46:04.019Z,8.85
2018-11-27T06:48:32.119Z,10.32
2018-11-27T06:51:00.249Z,9.25
2018-11-27T06:53:28.373Z,10.28
2018-11-27T06:55:56.526Z,10.28
2018-11-27T06:58:24.658Z,9.60
2018-11-27T07:00:53.032Z,9.05
2018-11-27T07:03:21.200Z,10.82
2018-11-27T07:05:49.350Z,9.25
2018-11-27T07:08:17.491Z,9.85
2018-11-27T07:10:46.196Z,10.30
2018-11-27T07:13:16.957Z,9.68
2018-11-27T07:15:46.496Z,8.85
2018-11-27T07:18:14.656Z,8.75
2018-11-27T07:20:42.834Z,8.73
2018-11-27T07:23:10.964Z,9.65
2018-11-27T07:25:39.146Z,9.30
2018-11-27T07:28:07.316Z,9.55
2018-11-27T07:30:36.182Z,9.10
2018-11-27T07:33:04.552Z,8.75
2018-11-27T07:35:32.724Z,10.15
2018-11-27T07:38:00.903Z,9.73
2018-11-27T07:40:29.618Z,9.80
2018-11-27T07:43:03.386Z,8.48
2018-11-27T07:45:31.536Z,8.83
2018-11-27T07:47:59.690Z,10.32
2018-11-27T07:50:27.860Z,9.10
2018-11-27T07:52:55.998Z,9.65
2018-11-27T07:55:24.548Z,11.63
2018-11-27T07:57:53.526Z,9.75
2018-11-27T08:00:24.512Z,9.43
2018-11-27T08:02:53.684Z,9.75
2018-11-27T08:05:25.749Z,9.45
2018-11-27T08:07:55.850Z,10.10
2018-11-27T08:10:25.148Z,9.55
2018-11-27T08:12:53.332Z,10.43
2018-11-27T08:15:29.558Z,9.83
2018-11-27T08:17:57.814Z,11.40
2018-11-27T08:20:30.892Z,11.08
2018-11-27T08:22:59.156Z,8.78
2018-11-27T08:25:27.315Z,11.35
2018-11-27T08:27:55.500Z,10.28
2018-11-27T08:30:24.137Z,9.98
2018-11-27T08:32:52.995Z,11.10
2018-11-27T08:35:23.236Z,9.53
2018-11-27T08:37:52.472Z,8.48
2018-11-27T08:40:21.780Z,8.70
2018-11-27T08:42:50.027Z,8.18
2018-11-27T08:45:19.792Z,9.45
2018-11-27T08:47:48.822Z,9.75
2018-11-27T08:50:18.901Z,10.95
2018-11-27T08:52:50.184Z,10.23
2018-11-27T08:55:19.988Z,10.05
2018-11-27T08:57:48.202Z,11.35
2018-11-27T09:00:17.466Z,11.10
2018-11-27T09:02:45.908Z,10.25
2018-11-27T09:05:14.178Z,12.23
2018-11-27T09:07:42.920Z,10.70
2018-11-27T09:10:13.763Z,13.20
2018-11-27T09:12:41.953Z,11.53
2018-11-27T09:15:11.787Z,14.20
2018-11-27T09:17:40.243Z,14.20
2018-11-27T09:20:10.236Z,12.73
2018-11-27T09:22:38.773Z,11.73
2018-11-27T09:25:09.568Z,12.80
2018-11-27T09:27:37.694Z,14.00
2018-11-27T09:30:11.384Z,11.57
2018-11-27T09:32:39.576Z,11.97
2018-11-27T09:35:07.894Z,11.22
2018-11-27T09:37:36.045Z,11.03
2018-11-27T09:40:04.522Z,10.28
2018-11-27T09:42:32.684Z,10.30
2018-11-27T09:45:00.831Z,9.63
2018-11-27T09:47:29.036Z,10.88
2018-11-27T09:49:57.177Z,9.65
2018-11-27T09:52:25.356Z,9.23
2018-11-27T09:54:54.680Z,8.05
2018-11-27T09:57:22.791Z,9.03
2018-11-27T09:59:50.899Z,8.58
2018-11-27T10:02:19.035Z,7.75
2018-11-27T10:04:47.242Z,9.93
2018-11-27T10:07:15.625Z,8.38
2018-11-27T10:09:43.823Z,8.53
2018-11-27T10:12:12.546Z,9.68
2018-11-27T10:14:40.671Z,9.03
2018-11-27T10:17:08.827Z,8.33
2018-11-27T10:19:37.055Z,9.28
2018-11-27T10:22:05.409Z,8.80
2018-11-27T10:24:33.532Z,9.38
2018-11-27T10:27:02.147Z,7.87
2018-11-27T10:29:30.338Z,9.25
2018-11-27T10:31:58.487Z,8.83
2018-11-27T10:34:26.591Z,10.00
2018-11-27T10:36:54.711Z,9.38
2018-11-27T10:39:22.924Z,9.45
2018-11-27T10:41:51.097Z,9.40
2018-11-27T10:44:19.223Z,9.33
2018-11-27T10:46:47.377Z,8.65
2018-11-27T10:49:18.079Z,9.80
2018-11-27T10:51:46.251Z,8.35
2018-11-27T10:54:20.927Z,9.18
2018-11-27T10:56:49.360Z,9.88
2018-11-27T10:59:17.943Z,7.90
2018-11-27T11:01:51.473Z,11.08
2018-11-27T11:04:19.641Z,11.83
2018-11-27T11:06:48.143Z,7.03
2018-11-27T11:09:16.329Z,7.00
2018-11-27T11:11:44.472Z,8.13
2018-11-27T11:14:12.643Z,7.95
2018-11-27T11:16:40.767Z,9.45
2018-11-27T11:19:08.898Z,8.98
2018-11-27T11:21:37.170Z,14.87
2018-11-27T11:24:05.358Z,11.30
2018-11-27T11:26:33.650Z,8.83
2018-11-27T11:29:02.126Z,8.30
2018-11-27T11:31:30.292Z,9.43
2018-11-27T11:33:58.487Z,11.78
2018-11-27T11:36:26.696Z,9.83
2018-11-27T11:38:54.854Z,8.13
2018-11-27T11:41:23.068Z,8.18
2018-11-27T11:43:51.204Z,7.85
2018-11-27T11:46:19.472Z,8.45
2018-11-27T11:48:47.596Z,8.70
2018-11-27T11:51:15.747Z,7.83
2018-11-27T11:53:43.904Z,8.08
2018-11-27T11:56:12.138Z,8.33
2018-11-27T11:58:40.347Z,10.43
2018-11-27T12:01:08.504Z,8.85
2018-11-27T12:03:36.703Z,10.53
2018-11-27T12:06:05.035Z,10.75
2018-11-27T12:08:33.198Z,11.88
2018-11-27T12:11:01.365Z,11.68
2018-11-27T12:13:29.506Z,14.65
2018-11-27T12:15:57.680Z,12.58
2018-11-27T12:18:26.239Z,13.13
2018-11-27T12:20:54.470Z,12.10
2018-11-27T12:23:22.619Z,12.80
2018-11-27T12:25:50.789Z,12.07
2018-11-27T12:28:18.948Z,11.43
2018-11-27T12:30:47.894Z,12.78
2018-11-27T12:33:16.092Z,12.95
2018-11-27T12:35:44.214Z,11.45
2018-11-27T12:38:12.402Z,12.13
2018-11-27T12:40:40.544Z,11.18
2018-11-27T12:43:08.684Z,11.57
2018-11-27T12:45:36.857Z,9.53
2018-11-27T12:48:05.079Z,13.35
2018-11-27T12:50:41.876Z,11.00
2018-11-27T12:53:16.529Z,9.23
2018-11-27T12:55:41.892Z,10.95
2018-11-27T12:58:10.103Z,9.15
2018-11-27T13:00:38.948Z,9.55
2018-11-27T13:03:07.442Z,9.63
2018-11-27T13:05:37.342Z,10.50
2018-11-27T13:08:07.896Z,9.28
2018-11-27T13:10:36.072Z,9.45
2018-11-27T13:13:07.598Z,11.22
2018-11-27T13:15:40.552Z,8.90
2018-11-27T13:18:12.042Z,9.53
2018-11-27T13:20:40.817Z,8.45
2018-11-27T13:23:09.258Z,8.48
2018-11-27T13:25:44.195Z,8.65
2018-11-27T13:28:13.302Z,9.50
2018-11-27T13:30:44.716Z,8.73
2018-11-27T13:33:23.610Z,8.58
2018-11-27T13:35:51.732Z,8.98
2018-11-27T13:38:19.862Z,7.80
2018-11-27T13:40:48.070Z,8.90
2018-11-27T13:43:21.418Z,7.92
2018-11-27T13:45:49.678Z,8.68
2018-11-27T13:48:17.908Z,9.15
2018-11-27T13:50:46.046Z,9.13
2018-11-27T13:53:14.158Z,11.50
2018-11-27T13:55:42.274Z,8.48
2018-11-27T13:58:10.430Z,9.35
2018-11-27T14:00:39.020Z,8.23
2018-11-27T14:03:10.802Z,8.18
2018-11-27T14:05:35.704Z,7.75
2018-11-27T14:08:04.206Z,8.23
2018-11-27T14:10:32.882Z,7.50
2018-11-27T14:13:03.225Z,8.40
2018-11-27T14:15:34.577Z,8.25
2018-11-27T14:18:03.435Z,9.13
2018-11-27T14:20:32.260Z,8.88
2018-11-27T14:23:00.423Z,8.13
2018-11-27T14:25:28.648Z,9.18
2018-11-27T14:27:57.832Z,8.50
2018-11-27T14:30:26.225Z,8.90
2018-11-27T14:32:55.783Z,9.08
2018-11-27T14:35:24.195Z,7.85
2018-11-27T14:37:53.632Z,7.37
2018-11-27T14:40:25.906Z,9.05
2018-11-27T14:42:54.065Z,8.70
2018-11-27T14:45:23.689Z,7.53
2018-11-27T14:47:53.339Z,8.03
2018-11-27T14:50:21.530Z,7.55
2018-11-27T14:52:49.683Z,7.55
2018-11-27T14:55:23.017Z,8.63
2018-11-27T14:57:51.221Z,9.08
2018-11-27T15:00:20.533Z,9.00
2018-11-27T15:02:48.698Z,9.08
2018-11-27T15:05:29.079Z,9.10
2018-11-27T15:07:57.323Z,10.05
2018-11-27T15:10:25.602Z,7.85
2018-11-27T15:12:53.769Z,8.08
2018-11-27T15:15:22.000Z,7.92
2018-11-27T15:17:50.299Z,9.40
2018-11-27T15:20:19.262Z,8.55
2018-11-27T15:22:47.545Z,11.03
2018-11-27T15:25:15.781Z,9.85
2018-11-27T15:27:44.160Z,9.08
2018-11-27T15:30:20.542Z,9.20
2018-11-27T15:32:49.270Z,10.05
2018-11-27T15:35:17.529Z,9.58
2018-11-27T15:37:45.674Z,8.75
2018-11-27T15:40:17.074Z,8.98
2018-11-27T15:42:45.322Z,9.23
2018-11-27T15:45:18.558Z,8.60
2018-11-27T15:47:46.875Z,8.78
2018-11-27T15:50:16.507Z,8.33
2018-11-27T15:52:49.508Z,9.10
2018-11-27T15:55:21.233Z,8.15
2018-11-27T15:57:50.690Z,8.48
2018-11-27T16:00:19.675Z,8.45
2018-11-27T16:02:47.858Z,11.00
2018-11-27T16:05:16.390Z,8.80
2018-11-27T16:07:44.667Z,9.05
2018-11-27T16:10:13.974Z,10.82
2018-11-27T16:12:42.263Z,9.58
2018-11-27T16:15:18.698Z,8.65
2018-11-27T16:17:47.281Z,8.70
2018-11-27T16:20:17.993Z,9.15
2018-11-27T16:22:50.242Z,8.90
2018-11-27T16:25:20.612Z,8.53
2018-11-27T16:27:48.780Z,9.28
2018-11-27T16:30:19.985Z,13.38
2018-11-27T16:32:48.185Z,8.95
2018-11-27T16:35:16.526Z,7.55
2018-11-27T16:37:46.051Z,8.25
2018-11-27T16:40:17.378Z,8.55
2018-11-27T16:42:45.558Z,7.65
2018-11-27T16:45:15.681Z,8.20
2018-11-27T16:47:44.288Z,9.23
2018-11-27T16:50:13.518Z,9.15
2018-11-27T16:52:41.792Z,8.23
2018-11-27T16:55:11.232Z,9.38
2018-11-27T16:57:39.414Z,8.23
2018-11-27T17:00:17.758Z,7.95
2018-11-27T17:02:46.384Z,11.70
2018-11-27T17:05:14.606Z,8.10
2018-11-27T17:07:42.985Z,8.98
2018-11-27T17:10:14.280Z,17.00
2018-11-27T17:12:42.842Z,7.70
2018-11-27T17:15:12.346Z,6.92
2018-11-27T17:17:40.572Z,7.33
2018-11-27T17:20:19.900Z,9.73
2018-11-27T17:22:48.163Z,7.80
2018-11-27T17:25:16.352Z,7.67
2018-11-27T17:27:44.741Z,7.53
2018-11-27T17:30:23.116Z,8.58
2018-11-27T17:32:51.630Z,6.58
2018-11-27T17:35:20.142Z,7.00
2018-11-27T17:37:48.860Z,7.75
2018-11-27T17:40:17.028Z,7.47
2018-11-27T17:42:45.211Z,7.83
2018-11-27T17:45:15.098Z,6.50
2018-11-27T17:47:44.031Z,6.00
2018-11-27T17:50:14.152Z,6.20
2018-11-27T17:52:42.363Z,6.45
2018-11-27T17:55:11.488Z,5.87
2018-11-27T17:57:39.816Z,5.03
2018-11-27T18:00:12.821Z,6.45
2018-11-27T18:02:41.219Z,5.25
2018-11-27T18:05:09.446Z,5.45
2018-11-27T18:07:37.628Z,4.80
2018-11-27T18:10:08.117Z,5.08
2018-11-27T18:12:36.284Z,4.92
2018-11-27T18:15:04.874Z,4.70
2018-11-27T18:17:33.059Z,5.10
2018-11-27T18:20:01.208Z,4.90
2018-11-27T18:22:29.438Z,5.25
2018-11-27T18:24:57.642Z,5.20
2018-11-27T18:27:25.819Z,5.62
2018-11-27T18:29:54.095Z,4.50
2018-11-27T18:32:23.025Z,4.85
2018-11-27T18:34:52.244Z,5.15
2018-11-27T18:37:20.474Z,5.12
2018-11-27T18:39:48.694Z,5.10
2018-11-27T18:42:16.868Z,4.90
2018-11-27T18:44:45.125Z,4.80
2018-11-27T18:47:14.330Z,6.35
2018-11-27T18:49:42.666Z,7.20
2018-11-27T18:52:10.910Z,5.78
2018-11-27T18:54:39.105Z,5.85
2018-11-27T18:57:07.328Z,6.47
2018-11-27T19:02:15.926Z,6.60
2018-11-27T19:04:46.024Z,5.20
2018-11-27T19:07:14.220Z,7.00
2018-11-27T19:09:43.218Z,6.30
2018-11-27T19:12:11.448Z,5.80
2018-11-27T19:14:39.843Z,6.40
2018-11-27T19:17:08.070Z,6.30
2018-11-27T19:19:36.803Z,7.20
2018-11-27T19:22:05.574Z,6.40
2018-11-27T19:24:33.885Z,6.42
2018-11-27T19:27:02.600Z,6.10
2018-11-27T19:29:30.814Z,5.83
2018-11-27T19:31:59.077Z,6.85
2018-11-27T19:34:27.708Z,5.85
2018-11-27T19:36:55.991Z,7.75
2018-11-27T19:39:24.226Z,6.05
2018-11-27T19:41:52.488Z,6.42
2018-11-27T19:44:20.688Z,6.25
2018-11-27T19:46:49.958Z,6.03
2018-11-27T19:49:18.071Z,6.15
2018-11-27T19:51:46.549Z,8.15
2018-11-27T19:54:14.786Z,15.20
2018-11-27T19:56:43.979Z,7.12
2018-11-27T19:59:12.383Z,5.85
2018-11-27T20:01:40.754Z,5.67
2018-11-27T20:04:09.076Z,5.85
2018-11-27T20:06:37.269Z,6.20
2018-11-27T20:09:08.620Z,5.40
2018-11-27T20:11:36.883Z,6.08
2018-11-27T20:14:05.212Z,5.85
2018-11-27T20:16:33.635Z,6.00
2018-11-27T20:19:04.496Z,5.70
2018-11-27T20:21:32.904Z,6.22
2018-11-27T20:24:01.218Z,6.55
2018-11-27T20:26:29.405Z,5.87
2018-11-27T20:28:57.568Z,6.50
2018-11-27T20:31:25.823Z,6.45
2018-11-27T20:33:54.000Z,6.08
2018-11-27T20:36:22.149Z,7.92
2018-11-27T20:38:50.343Z,4.80
2018-11-27T20:41:18.597Z,6.47
2018-11-27T20:43:48.462Z,6.62
2018-11-27T20:46:16.672Z,5.95
2018-11-27T20:48:45.202Z,6.53
2018-11-27T20:51:16.898Z,6.15
2018-11-27T20:53:45.491Z,6.15
2018-11-27T20:56:16.240Z,28.73
2018-11-27T20:58:44.706Z,6.97
2018-11-27T21:01:13.294Z,6.62
2018-11-27T21:03:41.589Z,8.03
2018-11-27T21:06:09.809Z,7.05
2018-11-27T21:08:38.655Z,6.75
2018-11-27T21:11:08.350Z,7.45
2018-11-27T21:13:37.354Z,6.50
2018-11-27T21:16:06.619Z,6.85
2018-11-27T21:18:35.191Z,5.95
2018-11-27T21:21:03.389Z,6.83
2018-11-27T21:23:32.339Z,7.40
2018-11-27T21:26:04.737Z,6.83
2018-11-27T21:28:33.999Z,7.10
2018-11-27T21:31:03.928Z,8.20
2018-11-27T21:33:32.117Z,6.60
2018-11-27T21:36:00.294Z,7.72
2018-11-27T21:38:28.487Z,6.60
2018-11-27T21:40:57.809Z,7.58
2018-11-27T21:43:26.150Z,8.15
2018-11-27T21:45:54.365Z,7.67
2018-11-27T21:48:22.565Z,7.58
2018-11-27T21:50:51.014Z,6.97
2018-11-27T21:53:20.048Z,7.47
2018-11-27T21:55:48.343Z,10.23
2018-11-27T21:58:18.897Z,8.48
2018-11-27T22:00:47.711Z,8.10
2018-11-27T22:03:15.965Z,8.60
2018-11-27T22:05:44.266Z,8.58
2018-11-27T22:08:12.442Z,7.75
2018-11-27T22:10:40.719Z,8.98
2018-11-27T22:13:10.710Z,8.05
2018-11-27T22:15:40.028Z,8.00
2018-11-27T22:18:09.328Z,6.70
2018-11-27T22:20:37.528Z,7.25
2018-11-27T22:23:06.726Z,7.87
2018-11-27T22:25:34.892Z,6.58
2018-11-27T22:28:03.638Z,7.62
2018-11-27T22:30:36.142Z,8.20
2018-11-27T22:33:05.956Z,7.42
2018-11-27T22:35:34.226Z,7.67
2018-11-27T22:38:02.555Z,7.55
2018-11-27T22:40:30.760Z,7.90
2018-11-27T22:42:58.944Z,7.62
2018-11-27T22:45:28.488Z,8.70
2018-11-27T22:47:56.634Z,8.45
2018-11-27T22:50:24.774Z,9.33
2018-11-27T22:52:53.014Z,8.00
2018-11-27T22:55:21.172Z,8.93
2018-11-27T22:57:49.332Z,9.75
2018-11-27T23:00:22.624Z,8.58
2018-11-27T23:02:50.805Z,5.55
2018-11-27T23:05:20.072Z,8.58
2018-11-27T23:07:48.430Z,7.40
2018-11-27T23:10:16.667Z,8.98
2018-11-27T23:12:45.330Z,7.12
2018-11-27T23:15:14.812Z,7.30
2018-11-27T23:17:43.794Z,7.60
2018-11-27T23:20:14.953Z,8.10
2018-11-27T23:22:43.191Z,8.55
2018-11-27T23:25:13.240Z,8.20
2018-11-27T23:27:41.422Z,7.70
2018-11-27T23:30:11.234Z,7.67
2018-11-27T23:32:39.384Z,6.58
2018-11-27T23:35:07.546Z,7.80
2018-11-27T23:37:36.170Z,6.97
2018-11-27T23:40:05.088Z,6.78
2018-11-27T23:42:33.266Z,6.90
2018-11-27T23:45:01.438Z,7.47
2018-11-27T23:47:30.804Z,7.35
2018-11-27T23:49:58.922Z,7.20
2018-11-27T23:52:28.405Z,6.85
2018-11-27T23:54:56.586Z,6.35
2018-11-27T23:57:24.776Z,6.10
2018-11-27T23:59:53.126Z,6.78
